Time;durP1;ratioP1;P1;durP2;ratioP2;P2;SDS_P1;SDS_P2;PMS_P1;PMS_P2;Temp;Humidity;BMP_temperature;BMP_pressure;BME280_temperature;BME280_humidity;BME280_pressure;Samples;Min_cycle;Max_cycle;Signal;HPM_P1;HPM_P2
2022/01/27 00:01:29;;;;;;;42.42;17.83;;;;;;;;;;5044496;28;20452;-62
2022/01/27 00:04:09;;;;;;;39.35;16.92;;;;;;;;;;5035659;28;20048;-62
2022/01/27 00:06:37;;;;;;;34.50;15.95;;;;;;;;;;5031843;28;20136;-62
2022/01/27 00:09:19;;;;;;;44.00;17.42;;;;;;;;;;5032926;28;20112;-62
2022/01/27 00:11:47;;;;;;;39.92;16.48;;;;;;;;;;5032157;28;20081;-62
2022/01/27 00:14:15;;;;;;;38.70;18.17;;;;;;;;;;5033986;28;20083;-62
2022/01/27 00:16:51;;;;;;;42.35;16.77;;;;;;;;;;5034858;28;20048;-62
2022/01/27 00:19:17;;;;;;;36.00;16.95;;;;;;;;;;5037528;28;20044;-62
2022/01/27 00:21:43;;;;;;;45.10;18.92;;;;;;;;;;5037834;28;20550;-62
2022/01/27 00:24:10;;;;;;;37.78;16.60;;;;;;;;;;5042927;28;20067;-62
2022/01/27 00:26:36;;;;;;;42.05;18.10;;;;;;;;;;5053029;28;21777;-62
2022/01/27 00:29:02;;;;;;;35.67;17.35;;;;;;;;;;5032469;28;20044;-62
2022/01/27 00:31:28;;;;;;;47.13;17.08;;;;;;;;;;5032598;28;20045;-62
2022/01/27 00:33:55;;;;;;;36.85;16.30;;;;;;;;;;5032720;28;20041;-62
2022/01/27 00:36:21;;;;;;;37.67;16.95;;;;;;;;;;5032367;28;20118;-62
2022/01/27 00:38:49;;;;;;;41.00;17.08;;;;;;;;;;5030909;28;20485;-62
2022/01/27 00:41:19;;;;;;;40.35;18.00;;;;;;;;;;5031106;28;20061;-63
2022/01/27 00:43:46;;;;;;;34.75;16.25;;;;;;;;;;5032392;28;20045;-62
2022/01/27 00:46:16;;;;;;;45.45;18.05;;;;;;;;;;5032198;28;20484;-62
2022/01/27 00:48:42;;;;;;;41.72;16.73;;;;;;;;;;5031821;28;20378;-62
2022/01/27 00:51:10;;;;;;;41.95;16.90;;;;;;;;;;5032221;28;20063;-62
2022/01/27 00:56:17;;;;;;;45.00;18.13;;;;;;;;;;5031539;28;20072;-62
2022/01/27 00:59:00;;;;;;;43.30;17.85;;;;;;;;;;5032137;28;20469;-62
2022/01/27 01:01:32;;;;;;;41.85;17.80;;;;;;;;;;5030836;28;20115;-62
2022/01/27 01:04:01;;;;;;;48.38;18.08;;;;;;;;;;5030478;28;20484;-62
2022/01/27 01:06:42;;;;;;;38.10;18.08;;;;;;;;;;5034816;28;20106;-62
2022/01/27 01:10:04;;;;;;;38.75;17.08;;;;;;;;;;5031330;28;20080;-62
2022/01/27 01:12:59;;;;;;;44.78;18.92;;;;;;;;;;5048671;28;20063;-62
2022/01/27 01:15:14;;;;;;;45.40;18.65;;;;;;;;;;5050161;28;20068;-62
2022/01/27 01:20:27;;;;;;;44.40;21.10;;;;;;;;;;5038313;28;20452;-62
2022/01/27 01:31:14;;;;;;;42.20;20.10;;;;;;;;;;5044909;28;20037;-62
2022/01/27 01:33:42;;;;;;;50.35;22.92;;;;;;;;;;5031524;28;20042;-62
2022/01/27 01:36:15;;;;;;;45.90;20.50;;;;;;;;;;5031059;28;20084;-62
2022/01/27 01:38:42;;;;;;;40.83;19.20;;;;;;;;;;5031433;28;20468;-62
2022/01/27 01:41:08;;;;;;;51.90;21.05;;;;;;;;;;5032564;28;20128;-63
2022/01/27 01:43:34;;;;;;;46.80;20.60;;;;;;;;;;5034851;28;20477;-62
2022/01/27 01:46:01;;;;;;;52.53;21.20;;;;;;;;;;5034098;28;20053;-62
2022/01/27 01:48:27;;;;;;;45.92;22.20;;;;;;;;;;5054232;28;20029;-62
2022/01/27 01:50:53;;;;;;;44.17;20.13;;;;;;;;;;5052630;28;20495;-62
2022/01/27 01:53:19;;;;;;;45.35;21.45;;;;;;;;;;5048560;28;20560;-62
2022/01/27 01:55:45;;;;;;;41.90;21.60;;;;;;;;;;5050563;28;20127;-62
2022/01/27 01:58:11;;;;;;;47.53;20.58;;;;;;;;;;5041678;28;20107;-62
2022/01/27 02:00:37;;;;;;;52.55;21.00;;;;;;;;;;5035713;28;20503;-62
2022/01/27 02:03:03;;;;;;;39.65;21.05;;;;;;;;;;5037554;28;20353;-62
2022/01/27 02:05:35;;;;;;;48.92;23.02;;;;;;;;;;5034314;28;20374;-62
2022/01/27 02:08:31;;;;;;;50.17;20.63;;;;;;;;;;5041595;28;20076;-62
2022/01/27 02:19:18;;;;;;;49.20;22.45;;;;;;;;;;5051972;28;20132;-63
2022/01/27 02:21:49;;;;;;;39.55;20.55;;;;;;;;;;5053477;28;20054;-62
2022/01/27 02:24:16;;;;;;;42.63;22.73;;;;;;;;;;5053497;28;20045;-62
2022/01/27 02:26:42;;;;;;;43.95;22.55;;;;;;;;;;5052944;28;20045;-62
2022/01/27 02:29:08;;;;;;;40.53;22.73;;;;;;;;;;5050962;28;20500;-62
2022/01/27 02:31:34;;;;;;;44.67;21.25;;;;;;;;;;5038432;28;20081;-62
2022/01/27 02:34:01;;;;;;;49.10;21.85;;;;;;;;;;5042975;28;20036;-62
2022/01/27 02:36:28;;;;;;;45.28;23.27;;;;;;;;;;5045650;28;20054;-62
2022/01/27 02:38:55;;;;;;;53.05;24.55;;;;;;;;;;5040038;28;20469;-62
2022/01/27 02:41:22;;;;;;;50.20;24.00;;;;;;;;;;5033613;28;20049;-62
2022/01/27 02:43:49;;;;;;;53.17;22.88;;;;;;;;;;5034686;28;20050;-62
2022/01/27 02:46:18;;;;;;;48.30;23.48;;;;;;;;;;5034183;28;20480;-62
2022/01/27 02:48:44;;;;;;;37.10;21.70;;;;;;;;;;5033017;28;20094;-62
2022/01/27 02:51:10;;;;;;;46.10;24.50;;;;;;;;;;5034224;28;20045;-62
2022/01/27 02:53:36;;;;;;;50.35;23.38;;;;;;;;;;5047924;28;20147;-62
2022/01/27 02:56:03;;;;;;;48.33;22.48;;;;;;;;;;5034337;28;20041;-62
2022/01/27 02:58:29;;;;;;;43.28;21.73;;;;;;;;;;5034190;28;20411;-62
2022/01/27 03:00:55;;;;;;;48.92;22.45;;;;;;;;;;5033447;28;20045;-62
2022/01/27 03:03:21;;;;;;;50.70;23.63;;;;;;;;;;5033969;28;20053;-62
2022/01/27 03:05:47;;;;;;;48.30;22.73;;;;;;;;;;5034217;28;20049;-62
2022/01/27 03:08:13;;;;;;;46.47;22.15;;;;;;;;;;5035815;28;20037;-62
2022/01/27 03:10:43;;;;;;;46.53;22.13;;;;;;;;;;5035956;28;20091;-62
2022/01/27 03:13:09;;;;;;;44.97;20.77;;;;;;;;;;5052566;28;20037;-62
2022/01/27 03:15:36;;;;;;;52.45;23.08;;;;;;;;;;5051083;28;20041;-61
2022/01/27 03:18:02;;;;;;;41.97;21.23;;;;;;;;;;5047853;28;20038;-62
2022/01/27 03:20:32;;;;;;;38.90;18.85;;;;;;;;;;5033630;28;20045;-62
2022/01/27 03:22:59;;;;;;;41.80;20.75;;;;;;;;;;5036844;28;20419;-62
2022/01/27 03:25:25;;;;;;;49.33;21.83;;;;;;;;;;5033757;28;20045;-62
2022/01/27 03:27:51;;;;;;;46.03;20.27;;;;;;;;;;5033669;28;20041;-62
2022/01/27 03:30:18;;;;;;;45.42;20.02;;;;;;;;;;5032903;28;20080;-62
2022/01/27 03:32:44;;;;;;;52.28;20.45;;;;;;;;;;5048136;28;20056;-62
2022/01/27 03:35:11;;;;;;;44.13;18.67;;;;;;;;;;5051897;28;20083;-62
2022/01/27 03:37:37;;;;;;;52.90;18.77;;;;;;;;;;5051101;28;20123;-62
2022/01/27 03:40:03;;;;;;;43.60;17.60;;;;;;;;;;5037187;28;20059;-62
2022/01/27 03:42:30;;;;;;;41.25;18.45;;;;;;;;;;5038835;28;20122;-62
2022/01/27 03:44:56;;;;;;;47.85;18.10;;;;;;;;;;5032777;28;20113;-62
2022/01/27 03:47:22;;;;;;;42.50;18.38;;;;;;;;;;5034858;28;20053;-62
2022/01/27 03:49:48;;;;;;;45.58;20.60;;;;;;;;;;5032572;28;20064;-62
2022/01/27 03:52:15;;;;;;;47.03;18.35;;;;;;;;;;5033289;28;20072;-62
2022/01/27 03:54:42;;;;;;;41.60;16.70;;;;;;;;;;5033251;28;20064;-62
2022/01/27 03:57:08;;;;;;;51.08;18.02;;;;;;;;;;5044057;28;20052;-62
2022/01/27 03:59:34;;;;;;;42.83;17.05;;;;;;;;;;5036296;28;20068;-62
2022/01/27 04:02:04;;;;;;;51.00;18.65;;;;;;;;;;5031881;28;20045;-62
2022/01/27 04:04:30;;;;;;;41.38;16.00;;;;;;;;;;5031531;28;20405;-62
2022/01/27 04:06:58;;;;;;;45.85;17.08;;;;;;;;;;5038765;28;20461;-62
2022/01/27 04:09:24;;;;;;;43.60;17.00;;;;;;;;;;5033042;28;20392;-62
2022/01/27 04:11:50;;;;;;;45.75;18.20;;;;;;;;;;5032084;28;20048;-62
2022/01/27 04:14:16;;;;;;;57.20;18.45;;;;;;;;;;5031843;28;20075;-62
2022/01/27 04:16:43;;;;;;;42.90;16.25;;;;;;;;;;5032885;28;20042;-61
2022/01/27 04:19:09;;;;;;;38.00;15.18;;;;;;;;;;5044645;28;20099;-62
2022/01/27 04:21:35;;;;;;;46.42;16.60;;;;;;;;;;5051179;28;20073;-62
2022/01/27 04:24:01;;;;;;;44.08;16.88;;;;;;;;;;5050997;28;20037;-62
2022/01/27 04:26:36;;;;;;;38.42;16.38;;;;;;;;;;5050571;28;20049;-62
2022/01/27 04:29:03;;;;;;;42.53;17.17;;;;;;;;;;5051579;28;20374;-62
2022/01/27 04:31:30;;;;;;;39.65;15.57;;;;;;;;;;5035926;28;20083;-62
2022/01/27 04:33:56;;;;;;;46.80;17.92;;;;;;;;;;5031600;28;20045;-61
2022/01/27 04:36:29;;;;;;;41.28;15.10;;;;;;;;;;5032468;28;20052;-62
2022/01/27 04:39:07;;;;;;;48.00;18.23;;;;;;;;;;5048209;28;20510;-62
2022/01/27 04:41:42;;;;;;;42.15;15.18;;;;;;;;;;5050339;28;20057;-61
2022/01/27 04:46:53;;;;;;;42.35;15.10;;;;;;;;;;5032300;28;20076;-62
2022/01/27 04:49:19;;;;;;;40.75;15.23;;;;;;;;;;5032144;28;20081;-62
2022/01/27 04:51:45;;;;;;;37.95;14.80;;;;;;;;;;5033966;28;20041;-62
2022/01/27 04:54:19;;;;;;;45.33;16.73;;;;;;;;;;5030016;28;20213;-62
2022/01/27 04:56:45;;;;;;;47.22;14.93;;;;;;;;;;5031840;28;20500;-62
2022/01/27 04:59:18;;;;;;;37.80;16.40;;;;;;;;;;5032120;28;20044;-62
2022/01/27 05:01:50;;;;;;;38.67;14.80;;;;;;;;;;5031320;28;20042;-62
2022/01/27 05:04:19;;;;;;;51.38;18.13;;;;;;;;;;5031222;28;20062;-62
2022/01/27 05:06:48;;;;;;;44.42;15.27;;;;;;;;;;5043146;28;20041;-62
2022/01/27 05:09:14;;;;;;;55.08;16.58;;;;;;;;;;5029721;28;20053;-62
2022/01/27 05:11:51;;;;;;;57.90;17.70;;;;;;;;;;5043250;28;20430;-62
2022/01/27 05:14:21;;;;;;;56.72;17.35;;;;;;;;;;5048126;28;20045;-62
2022/01/27 05:16:47;;;;;;;45.05;16.73;;;;;;;;;;5031933;28;20515;-62
2022/01/27 05:19:13;;;;;;;53.90;18.73;;;;;;;;;;5048904;28;20094;-62
2022/01/27 05:21:40;;;;;;;60.75;19.15;;;;;;;;;;5032638;28;20060;-62
2022/01/27 05:24:06;;;;;;;52.60;17.73;;;;;;;;;;5031809;28;20056;-62
2022/01/27 05:26:34;;;;;;;56.42;19.38;;;;;;;;;;5031249;28;20430;-62
2022/01/27 05:29:00;;;;;;;55.55;17.92;;;;;;;;;;5031037;28;20077;-62
2022/01/27 05:31:26;;;;;;;54.38;18.83;;;;;;;;;;5031868;28;20081;-62
2022/01/27 05:33:52;;;;;;;57.17;20.42;;;;;;;;;;5038819;28;20476;-62
2022/01/27 05:36:19;;;;;;;61.17;19.25;;;;;;;;;;5047565;28;20049;-62
2022/01/27 05:38:45;;;;;;;57.67;19.23;;;;;;;;;;5040625;28;20065;-62
2022/01/27 05:41:11;;;;;;;57.05;20.60;;;;;;;;;;5031000;28;20037;-62
2022/01/27 05:43:37;;;;;;;56.70;20.15;;;;;;;;;;5030493;28;20523;-62
2022/01/27 05:46:04;;;;;;;56.47;20.17;;;;;;;;;;5035348;28;20095;-62
2022/01/27 05:48:30;;;;;;;60.42;21.13;;;;;;;;;;5041612;28;20033;-62
2022/01/27 05:50:57;;;;;;;67.90;21.88;;;;;;;;;;5049096;28;20528;-62
2022/01/27 05:53:24;;;;;;;62.20;20.15;;;;;;;;;;5044558;28;20120;-61
2022/01/27 05:55:50;;;;;;;79.85;22.75;;;;;;;;;;5038517;28;20445;-61
2022/01/27 05:58:16;;;;;;;60.47;20.52;;;;;;;;;;5043090;28;20606;-73
2022/01/27 06:00:42;;;;;;;70.63;22.77;;;;;;;;;;5034673;28;20049;-62
2022/01/27 06:03:08;;;;;;;69.80;21.30;;;;;;;;;;5033035;28;20038;-62
2022/01/27 06:05:34;;;;;;;65.10;20.27;;;;;;;;;;5039079;28;20507;-62
2022/01/27 06:08:00;;;;;;;66.55;22.25;;;;;;;;;;5029018;28;20749;-62
2022/01/27 06:10:26;;;;;;;78.07;22.45;;;;;;;;;;5048027;28;20041;-62
2022/01/27 06:12:56;;;;;;;61.92;20.63;;;;;;;;;;5046283;28;20044;-62
2022/01/27 06:15:23;;;;;;;62.38;20.85;;;;;;;;;;5040571;28;20526;-62
2022/01/27 06:17:49;;;;;;;73.30;21.55;;;;;;;;;;5042761;28;20045;-62
2022/01/27 06:20:17;;;;;;;68.35;19.95;;;;;;;;;;5041919;28;20113;-62
2022/01/27 06:22:43;;;;;;;55.40;19.33;;;;;;;;;;5038287;28;20041;-63
2022/01/27 06:25:10;;;;;;;74.93;21.77;;;;;;;;;;5035118;28;20045;-61
2022/01/27 06:27:36;;;;;;;75.07;22.15;;;;;;;;;;5039551;28;20049;-61
2022/01/27 06:30:05;;;;;;;61.38;19.40;;;;;;;;;;5036752;28;20034;-61
2022/01/27 06:32:31;;;;;;;65.63;21.33;;;;;;;;;;5037919;28;20045;-62
2022/01/27 06:34:57;;;;;;;76.88;20.58;;;;;;;;;;5044627;28;20037;-63
2022/01/27 06:37:24;;;;;;;77.28;20.45;;;;;;;;;;5042140;28;20120;-63
2022/01/27 06:39:52;;;;;;;73.07;21.00;;;;;;;;;;5046354;28;20072;-63
2022/01/27 06:42:18;;;;;;;69.85;20.65;;;;;;;;;;5052633;28;20087;-63
2022/01/27 06:44:45;;;;;;;64.30;19.23;;;;;;;;;;5051789;28;20048;-62
2022/01/27 06:47:11;;;;;;;62.08;18.00;;;;;;;;;;5042948;28;20076;-62
2022/01/27 06:49:37;;;;;;;59.67;19.63;;;;;;;;;;5054853;28;20059;-63
2022/01/27 06:52:03;;;;;;;65.10;18.42;;;;;;;;;;5050130;28;20095;-62
2022/01/27 06:54:29;;;;;;;60.45;18.80;;;;;;;;;;5034862;28;20033;-62
2022/01/27 06:56:56;;;;;;;49.58;18.42;;;;;;;;;;5032859;28;20068;-62
2022/01/27 06:59:22;;;;;;;67.15;20.35;;;;;;;;;;5050069;28;20040;-62
2022/01/27 07:01:48;;;;;;;58.65;17.98;;;;;;;;;;5039583;28;20076;-62
2022/01/27 07:04:14;;;;;;;59.67;18.27;;;;;;;;;;5045917;28;20056;-62
2022/01/27 07:06:40;;;;;;;61.38;18.30;;;;;;;;;;5037441;28;20041;-62
2022/01/27 07:09:06;;;;;;;60.28;19.17;;;;;;;;;;5049728;28;20114;-62
2022/01/27 07:11:32;;;;;;;53.55;18.23;;;;;;;;;;5033979;28;20124;-62
2022/01/27 07:13:58;;;;;;;56.88;17.13;;;;;;;;;;5033260;28;20044;-62
2022/01/27 07:16:25;;;;;;;64.93;18.75;;;;;;;;;;5040196;28;20071;-62
2022/01/27 07:18:52;;;;;;;57.88;16.20;;;;;;;;;;5042540;28;20112;-62
2022/01/27 07:21:19;;;;;;;62.78;16.38;;;;;;;;;;5044473;28;20045;-62
2022/01/27 07:23:46;;;;;;;55.55;16.60;;;;;;;;;;5044091;28;20087;-65
2022/01/27 07:26:13;;;;;;;51.05;17.42;;;;;;;;;;5047525;28;20068;-62
2022/01/27 07:28:39;;;;;;;46.65;15.63;;;;;;;;;;5041937;28;20045;-61
2022/01/27 07:31:05;;;;;;;59.20;14.70;;;;;;;;;;5045327;28;20068;-62
2022/01/27 07:33:32;;;;;;;46.42;14.25;;;;;;;;;;5044854;28;20032;-62
2022/01/27 07:35:58;;;;;;;39.38;12.88;;;;;;;;;;5042126;28;20588;-62
2022/01/27 07:38:26;;;;;;;48.65;13.57;;;;;;;;;;5037938;28;20047;-62
2022/01/27 07:40:53;;;;;;;41.38;12.07;;;;;;;;;;5038809;28;20041;-62
2022/01/27 07:43:19;;;;;;;44.30;13.65;;;;;;;;;;5036237;28;20404;-62
2022/01/27 07:45:45;;;;;;;43.15;11.35;;;;;;;;;;5040973;28;20049;-63
2022/01/27 07:48:11;;;;;;;42.38;11.77;;;;;;;;;;5041607;28;20463;-62
2022/01/27 07:50:38;;;;;;;43.78;10.98;;;;;;;;;;5039117;28;20029;-63
2022/01/27 07:53:04;;;;;;;37.17;11.38;;;;;;;;;;5036156;28;20033;-62
2022/01/27 07:55:30;;;;;;;48.13;13.30;;;;;;;;;;5035438;28;20092;-62
2022/01/27 07:57:56;;;;;;;37.30;11.18;;;;;;;;;;5034205;28;20037;-63
2022/01/27 08:00:23;;;;;;;40.75;10.77;;;;;;;;;;5034382;28;20087;-62
2022/01/27 08:02:49;;;;;;;37.58;10.65;;;;;;;;;;5036141;28;20096;-63
2022/01/27 08:05:15;;;;;;;41.97;11.32;;;;;;;;;;5044115;28;20055;-63
2022/01/27 08:07:41;;;;;;;34.90;9.25;;;;;;;;;;5051473;28;20048;-63
2022/01/27 08:10:07;;;;;;;35.15;9.95;;;;;;;;;;5043209;28;20064;-63
2022/01/27 08:12:39;;;;;;;31.33;9.18;;;;;;;;;;5043824;28;20060;-63
2022/01/27 08:15:05;;;;;;;38.08;9.38;;;;;;;;;;5045797;28;20070;-70
2022/01/27 08:17:31;;;;;;;45.20;11.60;;;;;;;;;;5049052;28;20112;-63
2022/01/27 08:19:57;;;;;;;32.30;8.95;;;;;;;;;;5049286;28;20045;-63
2022/01/27 08:22:23;;;;;;;40.28;10.90;;;;;;;;;;5043708;28;20037;-63
2022/01/27 08:24:50;;;;;;;32.50;9.30;;;;;;;;;;5040818;28;20113;-63
2022/01/27 08:27:19;;;;;;;38.33;9.93;;;;;;;;;;5037091;28;20054;-64
2022/01/27 08:29:52;;;;;;;40.30;8.93;;;;;;;;;;5038858;28;20044;-63
2022/01/27 08:32:29;;;;;;;34.60;8.77;;;;;;;;;;5049889;28;20548;-63
2022/01/27 08:34:55;;;;;;;34.83;8.38;;;;;;;;;;5048430;28;20056;-62
2022/01/27 08:37:21;;;;;;;35.90;11.25;;;;;;;;;;5041042;28;20121;-63
2022/01/27 08:39:48;;;;;;;37.42;9.23;;;;;;;;;;5049311;28;20040;-63
2022/01/27 08:42:15;;;;;;;29.50;8.05;;;;;;;;;;5038465;28;20053;-63
2022/01/27 08:44:41;;;;;;;31.88;9.20;;;;;;;;;;5049070;28;20469;-63
2022/01/27 08:47:07;;;;;;;34.17;9.25;;;;;;;;;;5048557;28;20095;-63
2022/01/27 08:49:34;;;;;;;29.40;8.02;;;;;;;;;;5045818;28;20055;-62
2022/01/27 08:52:02;;;;;;;35.78;8.02;;;;;;;;;;5038723;28;20448;-63
2022/01/27 08:54:28;;;;;;;34.03;8.05;;;;;;;;;;5030239;28;20096;-62
2022/01/27 08:56:54;;;;;;;35.95;7.30;;;;;;;;;;5032017;28;20041;-63
2022/01/27 08:59:21;;;;;;;37.15;7.75;;;;;;;;;;5038504;28;20370;-63
2022/01/27 09:01:47;;;;;;;31.17;7.57;;;;;;;;;;5060037;28;20407;-63
2022/01/27 09:04:13;;;;;;;37.30;7.28;;;;;;;;;;5046690;28;20468;-63
2022/01/27 09:06:39;;;;;;;30.85;7.45;;;;;;;;;;5049933;28;20060;-63
2022/01/27 09:09:06;;;;;;;31.35;7.72;;;;;;;;;;5046058;28;20116;-63
2022/01/27 09:11:33;;;;;;;27.10;6.47;;;;;;;;;;5049456;28;20075;-63
2022/01/27 09:14:00;;;;;;;38.67;7.90;;;;;;;;;;5047721;28;20115;-63
2022/01/27 09:16:27;;;;;;;33.85;7.60;;;;;;;;;;5051309;28;20095;-63
2022/01/27 09:18:54;;;;;;;53.90;9.50;;;;;;;;;;5051321;28;20041;-63
2022/01/27 09:21:25;;;;;;;44.35;7.60;;;;;;;;;;5037383;28;20074;-63
2022/01/27 09:23:52;;;;;;;35.50;6.93;;;;;;;;;;5038055;28;20484;-63
2022/01/27 09:26:41;;;;;;;33.13;7.03;;;;;;;;;;5047563;28;20072;-63
2022/01/27 09:29:08;;;;;;;33.47;6.90;;;;;;;;;;5045670;28;20499;-63
2022/01/27 09:31:35;;;;;;;35.25;7.97;;;;;;;;;;5054284;28;20172;-63
2022/01/27 09:34:01;;;;;;;32.92;9.38;;;;;;;;;;5047095;28;20037;-63
2022/01/27 09:36:27;;;;;;;39.58;6.65;;;;;;;;;;5049447;28;20105;-63
2022/01/27 09:38:53;;;;;;;37.53;7.40;;;;;;;;;;5047607;28;20369;-63
2022/01/27 09:41:20;;;;;;;35.58;6.93;;;;;;;;;;5045723;28;20050;-63
2022/01/27 09:43:48;;;;;;;32.03;6.60;;;;;;;;;;5044106;28;20444;-63
2022/01/27 09:46:19;;;;;;;39.63;8.73;;;;;;;;;;5044340;28;20049;-62
2022/01/27 09:48:48;;;;;;;27.73;6.18;;;;;;;;;;5039500;28;20115;-62
2022/01/27 09:51:27;;;;;;;29.55;6.13;;;;;;;;;;5039640;28;20049;-63
2022/01/27 09:53:55;;;;;;;27.30;7.30;;;;;;;;;;5039558;28;20456;-63
2022/01/27 09:56:21;;;;;;;25.45;6.03;;;;;;;;;;5033008;28;20385;-63
2022/01/27 09:58:48;;;;;;;36.20;7.43;;;;;;;;;;5037204;28;20041;-63
2022/01/27 10:01:14;;;;;;;20.92;5.65;;;;;;;;;;5053498;28;20084;-63
2022/01/27 10:03:55;;;;;;;29.23;6.43;;;;;;;;;;5046712;28;20037;-63
2022/01/27 10:06:26;;;;;;;32.83;5.85;;;;;;;;;;5043238;28;20045;-63
2022/01/27 10:09:18;;;;;;;33.92;6.45;;;;;;;;;;5062498;28;20537;-62
2022/01/27 10:11:47;;;;;;;28.67;5.45;;;;;;;;;;5038850;28;20128;-63
2022/01/27 10:14:22;;;;;;;23.63;6.10;;;;;;;;;;5035555;28;20497;-62
2022/01/27 10:16:50;;;;;;;32.45;6.05;;;;;;;;;;5059853;28;20487;-63
2022/01/27 10:19:17;;;;;;;32.53;6.28;;;;;;;;;;5044765;28;20068;-63
2022/01/27 10:21:43;;;;;;;30.02;6.25;;;;;;;;;;5047353;28;20041;-63
2022/01/27 10:24:19;;;;;;;35.33;7.57;;;;;;;;;;5038228;28;20123;-63
2022/01/27 10:26:52;;;;;;;26.90;5.75;;;;;;;;;;5046558;28;20044;-63
2022/01/27 10:29:33;;;;;;;30.45;6.20;;;;;;;;;;5055211;28;20045;-63
2022/01/27 10:32:05;;;;;;;32.67;6.32;;;;;;;;;;5059138;28;20068;-63
2022/01/27 10:34:52;;;;;;;33.13;6.03;;;;;;;;;;5041857;28;20049;-63
2022/01/27 10:37:18;;;;;;;25.88;5.38;;;;;;;;;;5044743;28;20124;-63
2022/01/27 10:39:47;;;;;;;30.75;5.25;;;;;;;;;;5041615;28;20095;-63
2022/01/27 10:42:13;;;;;;;28.27;5.35;;;;;;;;;;5041289;28;20053;-63
2022/01/27 10:44:45;;;;;;;27.30;5.82;;;;;;;;;;5040436;28;20481;-63
2022/01/27 10:47:16;;;;;;;24.63;4.35;;;;;;;;;;5040636;28;20076;-63
2022/01/27 10:49:48;;;;;;;28.45;6.40;;;;;;;;;;5035450;28;20087;-63
2022/01/27 10:52:28;;;;;;;29.48;5.25;;;;;;;;;;5035333;28;20105;-63
2022/01/27 10:54:55;;;;;;;29.10;5.88;;;;;;;;;;5051079;28;20045;-64
2022/01/27 10:57:24;;;;;;;24.30;5.22;;;;;;;;;;5051932;28;20052;-63
2022/01/27 10:59:50;;;;;;;28.13;4.65;;;;;;;;;;5047110;28;20041;-63
2022/01/27 11:02:17;;;;;;;31.98;5.38;;;;;;;;;;5048138;28;20064;-63
2022/01/27 11:04:44;;;;;;;37.25;6.28;;;;;;;;;;5049987;28;20107;-63
2022/01/27 11:07:11;;;;;;;35.15;6.57;;;;;;;;;;5047076;28;20033;-62
2022/01/27 11:09:42;;;;;;;32.22;4.80;;;;;;;;;;5047157;28;20142;-63
2022/01/27 11:12:13;;;;;;;29.40;5.15;;;;;;;;;;5040691;28;20049;-63
2022/01/27 11:14:40;;;;;;;33.05;6.30;;;;;;;;;;5032996;28;20440;-62
2022/01/27 11:17:15;;;;;;;35.95;5.70;;;;;;;;;;5034759;28;20128;-62
2022/01/27 11:27:26;;;;;;;33.78;4.90;;;;;;;;;;5033711;28;20536;-62
2022/01/27 11:29:58;;;;;;;33.63;4.95;;;;;;;;;;5044181;28;20480;-62
2022/01/27 11:32:32;;;;;;;27.30;5.60;;;;;;;;;;5059440;28;20056;-63
2022/01/27 11:34:58;;;;;;;37.08;6.25;;;;;;;;;;5047222;28;20072;-62
2022/01/27 11:37:32;;;;;;;38.20;6.95;;;;;;;;;;5050791;28;20052;-62
2022/01/27 11:40:02;;;;;;;29.30;5.45;;;;;;;;;;5050311;28;20037;-62
2022/01/27 11:42:35;;;;;;;35.00;5.55;;;;;;;;;;5046931;28;20210;-62
2022/01/27 11:45:20;;;;;;;23.73;4.83;;;;;;;;;;5048760;28;20044;-62
2022/01/27 11:47:53;;;;;;;28.92;5.43;;;;;;;;;;5042682;28;20052;-62
2022/01/27 11:50:36;;;;;;;29.85;5.22;;;;;;;;;;5038787;28;20037;-62
2022/01/27 11:53:04;;;;;;;24.37;4.63;;;;;;;;;;5035851;28;20049;-62
2022/01/27 11:55:37;;;;;;;27.45;5.22;;;;;;;;;;5032542;28;20480;-62
2022/01/27 11:58:12;;;;;;;30.10;5.50;;;;;;;;;;5048049;28;20037;-62
2022/01/27 12:00:39;;;;;;;32.13;6.18;;;;;;;;;;5050649;28;20121;-62
2022/01/27 12:03:12;;;;;;;33.38;5.45;;;;;;;;;;5052182;28;20045;-62
2022/01/27 12:05:40;;;;;;;42.50;5.90;;;;;;;;;;5049214;28;20080;-62
2022/01/27 12:08:10;;;;;;;38.90;6.18;;;;;;;;;;5066717;28;20053;-62
2022/01/27 12:10:42;;;;;;;30.85;6.95;;;;;;;;;;5048443;28;20350;-62
2022/01/27 12:13:35;;;;;;;40.60;5.60;;;;;;;;;;5051738;28;20049;-62
2022/01/27 12:18:56;;;;;;;32.28;6.05;;;;;;;;;;5051187;28;20395;-62
2022/01/27 12:21:34;;;;;;;33.88;6.28;;;;;;;;;;5051637;28;20072;-62
2022/01/27 12:24:11;;;;;;;29.63;5.57;;;;;;;;;;5052209;28;20457;-62
2022/01/27 12:26:46;;;;;;;37.20;6.60;;;;;;;;;;5049834;28;20503;-63
2022/01/27 12:29:12;;;;;;;32.05;5.75;;;;;;;;;;5046649;28;20033;-63
2022/01/27 12:31:39;;;;;;;33.83;6.18;;;;;;;;;;5047738;28;20069;-62
2022/01/27 12:34:05;;;;;;;31.42;5.68;;;;;;;;;;5047503;28;20045;-63
2022/01/27 12:36:31;;;;;;;27.10;4.38;;;;;;;;;;5052446;28;20361;-62
2022/01/27 12:38:58;;;;;;;41.63;4.95;;;;;;;;;;5049807;28;20056;-62
2022/01/27 12:41:24;;;;;;;46.47;7.57;;;;;;;;;;5046491;28;20518;-63
2022/01/27 12:43:51;;;;;;;32.53;5.50;;;;;;;;;;5048454;28;20488;-63
2022/01/27 12:46:17;;;;;;;32.97;5.80;;;;;;;;;;5047462;28;20094;-62
2022/01/27 12:48:48;;;;;;;26.95;4.78;;;;;;;;;;5049876;28;20090;-63
2022/01/27 12:51:14;;;;;;;37.53;6.15;;;;;;;;;;5051474;28;20044;-63
2022/01/27 12:53:41;;;;;;;35.28;6.03;;;;;;;;;;5048370;28;20556;-63
2022/01/27 12:56:08;;;;;;;27.52;4.85;;;;;;;;;;5049386;28;20529;-62
2022/01/27 12:58:34;;;;;;;28.55;4.28;;;;;;;;;;5050765;28;20088;-63
2022/01/27 13:01:01;;;;;;;27.95;4.43;;;;;;;;;;5060586;28;20130;-63
2022/01/27 13:03:28;;;;;;;28.45;4.68;;;;;;;;;;5039091;28;20041;-62
2022/01/27 13:05:59;;;;;;;25.13;4.07;;;;;;;;;;5053678;28;20119;-63
2022/01/27 13:08:31;;;;;;;21.85;3.92;;;;;;;;;;5050024;28;20388;-63
2022/01/27 13:11:02;;;;;;;20.92;4.00;;;;;;;;;;5049301;28;20077;-63
2022/01/27 13:13:34;;;;;;;36.70;5.57;;;;;;;;;;5044309;28;20080;-64
2022/01/27 13:16:03;;;;;;;26.85;3.90;;;;;;;;;;5042971;28;20045;-64
2022/01/27 13:18:40;;;;;;;18.67;3.83;;;;;;;;;;5044865;28;21576;-63
2022/01/27 13:21:17;;;;;;;28.10;4.85;;;;;;;;;;5044421;28;20075;-63
2022/01/27 13:23:46;;;;;;;25.25;4.07;;;;;;;;;;5044157;28;20381;-63
2022/01/27 13:26:16;;;;;;;30.45;5.22;;;;;;;;;;5043789;28;20081;-63
2022/01/27 13:28:44;;;;;;;20.63;4.18;;;;;;;;;;5041893;28;20033;-63
2022/01/27 13:31:13;;;;;;;33.75;5.78;;;;;;;;;;5040644;28;20044;-63
2022/01/27 13:33:40;;;;;;;27.40;4.70;;;;;;;;;;5039108;28;20444;-63
2022/01/27 13:36:08;;;;;;;27.60;4.45;;;;;;;;;;5041336;28;20057;-63
2022/01/27 13:38:51;;;;;;;31.10;3.83;;;;;;;;;;5045768;28;20082;-63
2022/01/27 13:41:19;;;;;;;33.40;4.50;;;;;;;;;;5046573;28;20075;-63
2022/01/27 13:43:48;;;;;;;30.70;4.05;;;;;;;;;;5047828;28;20079;-63
2022/01/27 13:46:34;;;;;;;27.33;4.93;;;;;;;;;;5048228;28;20071;-63
2022/01/27 13:49:06;;;;;;;32.25;5.05;;;;;;;;;;5048698;28;20484;-63
2022/01/27 13:51:32;;;;;;;27.25;3.90;;;;;;;;;;5045089;28;20042;-63
2022/01/27 13:53:59;;;;;;;29.13;5.03;;;;;;;;;;5051642;28;20049;-63
2022/01/27 13:56:25;;;;;;;36.00;4.55;;;;;;;;;;5042873;28;20044;-63
2022/01/27 13:59:09;;;;;;;34.45;5.70;;;;;;;;;;5044408;28;20102;-63
2022/01/27 14:01:35;;;;;;;23.17;4.50;;;;;;;;;;5050868;28;20055;-63
2022/01/27 14:04:01;;;;;;;23.27;4.68;;;;;;;;;;5054632;28;20361;-63
2022/01/27 14:06:28;;;;;;;33.13;4.20;;;;;;;;;;5048589;28;20044;-63
2022/01/27 14:08:57;;;;;;;35.35;5.65;;;;;;;;;;5053220;28;20069;-63
2022/01/27 14:11:37;;;;;;;30.00;4.95;;;;;;;;;;5051223;28;20123;-63
2022/01/27 14:14:05;;;;;;;29.58;4.72;;;;;;;;;;5051078;28;20138;-63
2022/01/27 14:16:32;;;;;;;31.98;4.72;;;;;;;;;;5045593;28;20079;-63
2022/01/27 14:19:09;;;;;;;25.92;4.55;;;;;;;;;;5047112;28;20106;-67
2022/01/27 14:21:40;;;;;;;25.98;4.78;;;;;;;;;;5047681;28;20395;-63
2022/01/27 14:24:09;;;;;;;25.30;4.22;;;;;;;;;;5044629;28;20106;-63
2022/01/27 14:26:41;;;;;;;25.02;3.92;;;;;;;;;;5047517;28;20124;-63
2022/01/27 14:29:09;;;;;;;28.20;4.43;;;;;;;;;;5048162;28;20052;-63
2022/01/27 14:31:36;;;;;;;29.15;5.22;;;;;;;;;;5042517;28;20075;-63
2022/01/27 14:34:02;;;;;;;25.38;4.22;;;;;;;;;;5039559;28;20044;-63
2022/01/27 14:36:29;;;;;;;29.77;4.90;;;;;;;;;;5037740;28;20073;-63
2022/01/27 14:38:55;;;;;;;26.55;4.07;;;;;;;;;;5041401;28;20055;-63
2022/01/27 14:41:21;;;;;;;29.77;5.38;;;;;;;;;;5036637;28;20068;-62
2022/01/27 14:43:48;;;;;;;27.10;4.75;;;;;;;;;;5047175;28;20403;-62
2022/01/27 14:46:20;;;;;;;30.65;5.13;;;;;;;;;;5044468;28;20144;-63
2022/01/27 14:48:53;;;;;;;30.02;5.25;;;;;;;;;;5044311;28;20064;-63
2022/01/27 14:51:20;;;;;;;29.00;4.85;;;;;;;;;;5048511;28;20357;-63
2022/01/27 14:53:46;;;;;;;29.60;4.90;;;;;;;;;;5044681;28;20045;-71
2022/01/27 14:56:13;;;;;;;28.98;5.40;;;;;;;;;;5040992;28;20496;-63
2022/01/27 14:58:39;;;;;;;30.05;4.75;;;;;;;;;;5044690;28;20043;-67
2022/01/27 15:01:05;;;;;;;35.55;5.97;;;;;;;;;;5052798;28;20327;-62
2022/01/27 15:03:32;;;;;;;31.48;5.18;;;;;;;;;;5050146;28;20056;-62
2022/01/27 15:05:59;;;;;;;29.60;4.45;;;;;;;;;;5051216;28;20840;-62
2022/01/27 15:08:25;;;;;;;30.60;3.80;;;;;;;;;;5050356;28;20111;-62